sensor_id;sensor_type;location;lat;lon;timestamp;pressure;altitude;pressure_sealevel;temperature;humidity
46015;BME280;36844;51.898;-0.874;2022-07-06T00:00:48;101649.81;;;20.34;
46015;BME280;36844;51.898;-0.874;2022-07-06T00:03:13;101668.00;;;20.41;
46015;BME280;36844;51.898;-0.874;2022-07-06T00:05:38;101640.50;;;20.32;
46015;BME280;36844;51.898;-0.874;2022-07-06T00:08:04;101651.38;;;20.35;
46015;BME280;36844;51.898;-0.874;2022-07-06T00:10:29;101642.47;;;20.31;
46015;BME280;36844;51.898;-0.874;2022-07-06T00:12:55;101629.28;;;20.19;
46015;BME280;36844;51.898;-0.874;2022-07-06T00:15:20;101643.22;;;20.28;
46015;BME280;36844;51.898;-0.874;2022-07-06T00:17:45;101641.69;;;20.27;
46015;BME280;36844;51.898;-0.874;2022-07-06T00:20:11;101645.94;;;20.32;
46015;BME280;36844;51.898;-0.874;2022-07-06T00:22:36;101658.31;;;20.36;
46015;BME280;36844;51.898;-0.874;2022-07-06T00:25:02;101662.94;;;20.36;
46015;BME280;36844;51.898;-0.874;2022-07-06T00:27:27;101644.41;;;20.27;
46015;BME280;36844;51.898;-0.874;2022-07-06T00:29:52;101656.38;;;20.30;
46015;BME280;36844;51.898;-0.874;2022-07-06T00:32:18;101658.31;;;20.33;
46015;BME280;36844;51.898;-0.874;2022-07-06T00:34:43;101624.63;;;20.13;
46015;BME280;36844;51.898;-0.874;2022-07-06T00:37:09;101643.63;;;20.27;
46015;BME280;36844;51.898;-0.874;2022-07-06T00:39:34;101655.59;;;20.26;
46015;BME280;36844;51.898;-0.874;2022-07-06T00:42:00;101642.44;;;20.21;
46015;BME280;36844;51.898;-0.874;2022-07-06T00:44:25;101648.25;;;20.26;
46015;BME280;36844;51.898;-0.874;2022-07-06T00:46:51;101632.34;;;20.18;
46015;BME280;36844;51.898;-0.874;2022-07-06T00:49:16;101633.13;;;20.18;
46015;BME280;36844;51.898;-0.874;2022-07-06T00:52:01;101649.03;;;20.27;
46015;BME280;36844;51.898;-0.874;2022-07-06T00:54:29;101643.59;;;20.16;
46015;BME280;36844;51.898;-0.874;2022-07-06T00:56:55;101645.50;;;20.16;
46015;BME280;36844;51.898;-0.874;2022-07-06T00:59:20;101644.75;;;20.19;
46015;BME280;36844;51.898;-0.874;2022-07-06T01:01:46;101647.44;;;20.15;
46015;BME280;36844;51.898;-0.874;2022-07-06T01:04:11;101630.00;;;20.09;
46015;BME280;36844;51.898;-0.874;2022-07-06T01:06:37;101635.06;;;20.14;
46015;BME280;36844;51.898;-0.874;2022-07-06T01:09:03;101638.53;;;20.15;
46015;BME280;36844;51.898;-0.874;2022-07-06T01:11:30;101652.47;;;20.20;
46015;BME280;36844;51.898;-0.874;2022-07-06T01:13:56;101651.72;;;20.20;
46015;BME280;36844;51.898;-0.874;2022-07-06T01:16:22;101642.81;;;20.12;
46015;BME280;36844;51.898;-0.874;2022-07-06T01:18:47;101655.56;;;20.19;
46015;BME280;36844;51.898;-0.874;2022-07-06T01:21:14;101651.28;;;20.18;
46015;BME280;36844;51.898;-0.874;2022-07-06T01:23:44;101653.63;;;20.16;
46015;BME280;36844;51.898;-0.874;2022-07-06T01:26:16;101654.75;;;20.11;
46015;BME280;36844;51.898;-0.874;2022-07-06T01:28:42;101652.44;;;20.10;
46015;BME280;36844;51.898;-0.874;2022-07-06T01:31:16;101654.34;;;20.06;
46015;BME280;36844;51.898;-0.874;2022-07-06T01:33:43;101638.47;;;19.97;
46015;BME280;36844;51.898;-0.874;2022-07-06T01:36:09;101638.47;;;19.97;
46015;BME280;36844;51.898;-0.874;2022-07-06T01:39:07;101656.28;;;20.05;
46015;BME280;36844;51.898;-0.874;2022-07-06T01:41:33;101660.53;;;20.06;
46015;BME280;36844;51.898;-0.874;2022-07-06T01:43:58;101655.91;;;20.03;
46015;BME280;36844;51.898;-0.874;2022-07-06T01:46:23;101656.25;;;20.02;
46015;BME280;36844;51.898;-0.874;2022-07-06T01:48:49;101655.47;;;20.01;
46015;BME280;36844;51.898;-0.874;2022-07-06T01:51:14;101672.16;;;20.10;
46015;BME280;36844;51.898;-0.874;2022-07-06T01:53:40;101656.69;;;20.04;
46015;BME280;36844;51.898;-0.874;2022-07-06T01:56:06;101653.19;;;20.00;
46015;BME280;36844;51.898;-0.874;2022-07-06T01:58:31;101668.28;;;20.08;
46015;BME280;36844;51.898;-0.874;2022-07-06T02:00:57;101657.44;;;20.01;
46015;BME280;36844;51.898;-0.874;2022-07-06T02:03:23;101644.66;;;19.94;
46015;BME280;36844;51.898;-0.874;2022-07-06T02:05:49;101661.31;;;20.03;
46015;BME280;36844;51.898;-0.874;2022-07-06T02:08:14;101670.22;;;20.07;
46015;BME280;36844;51.898;-0.874;2022-07-06T02:10:40;101658.16;;;19.98;
46015;BME280;36844;51.898;-0.874;2022-07-06T02:13:06;101654.31;;;19.99;
46015;BME280;36844;51.898;-0.874;2022-07-06T02:15:31;101663.63;;;20.05;
46015;BME280;36844;51.898;-0.874;2022-07-06T02:17:56;101651.63;;;19.99;
46015;BME280;36844;51.898;-0.874;2022-07-06T02:20:22;101651.63;;;19.99;
46015;BME280;36844;51.898;-0.874;2022-07-06T02:22:47;101642.69;;;19.95;
46015;BME280;36844;51.898;-0.874;2022-07-06T02:25:13;101655.88;;;20.00;
46015;BME280;36844;51.898;-0.874;2022-07-06T02:27:38;101656.25;;;20.02;
46015;BME280;36844;51.898;-0.874;2022-07-06T02:30:05;101656.25;;;20.02;
46015;BME280;36844;51.898;-0.874;2022-07-06T02:32:30;101646.59;;;19.97;
46015;BME280;36844;51.898;-0.874;2022-07-06T02:34:56;101652.75;;;19.91;
46015;BME280;36844;51.898;-0.874;2022-07-06T02:37:21;101663.56;;;19.98;
46015;BME280;36844;51.898;-0.874;2022-07-06T02:39:46;101669.41;;;20.00;
46015;BME280;36844;51.898;-0.874;2022-07-06T02:42:13;101646.19;;;19.92;
46015;BME280;36844;51.898;-0.874;2022-07-06T02:44:38;101646.59;;;19.97;
46015;BME280;36844;51.898;-0.874;2022-07-06T02:47:03;101637.66;;;19.90;
46015;BME280;36844;51.898;-0.874;2022-07-06T02:49:29;101637.66;;;19.90;
46015;BME280;36844;51.898;-0.874;2022-07-06T02:51:54;101638.06;;;19.95;
46015;BME280;36844;51.898;-0.874;2022-07-06T02:54:20;101623.00;;;19.91;
46015;BME280;36844;51.898;-0.874;2022-07-06T02:56:45;101622.59;;;19.89;
46015;BME280;36844;51.898;-0.874;2022-07-06T02:59:16;101612.56;;;19.86;
46015;BME280;36844;51.898;-0.874;2022-07-06T03:01:41;101631.88;;;19.95;
46015;BME280;36844;51.898;-0.874;2022-07-06T03:04:07;101624.94;;;19.94;
46015;BME280;36844;51.898;-0.874;2022-07-06T03:06:32;101607.91;;;19.86;
46015;BME280;36844;51.898;-0.874;2022-07-06T03:08:57;101613.69;;;19.85;
46015;BME280;36844;51.898;-0.874;2022-07-06T03:11:23;101628.44;;;19.94;
46015;BME280;36844;51.898;-0.874;2022-07-06T03:13:48;101623.41;;;19.93;
46015;BME280;36844;51.898;-0.874;2022-07-06T03:16:14;101623.41;;;19.93;
46015;BME280;36844;51.898;-0.874;2022-07-06T03:18:39;101624.91;;;19.87;
46015;BME280;36844;51.898;-0.874;2022-07-06T03:21:04;101622.19;;;19.83;
46015;BME280;36844;51.898;-0.874;2022-07-06T03:23:30;101629.91;;;19.85;
46015;BME280;36844;51.898;-0.874;2022-07-06T03:25:56;101627.63;;;19.90;
46015;BME280;36844;51.898;-0.874;2022-07-06T03:28:21;101614.84;;;19.80;
46015;BME280;36844;51.898;-0.874;2022-07-06T03:30:46;101611.78;;;19.85;
46015;BME280;36844;51.898;-0.874;2022-07-06T03:33:12;101605.19;;;19.83;
46015;BME280;36844;51.898;-0.874;2022-07-06T03:35:37;101617.97;;;19.86;
46015;BME280;36844;51.898;-0.874;2022-07-06T03:38:02;101619.91;;;19.89;
46015;BME280;36844;51.898;-0.874;2022-07-06T03:40:28;101617.56;;;19.84;
46015;BME280;36844;51.898;-0.874;2022-07-06T03:42:53;101624.91;;;19.87;
46015;BME280;36844;51.898;-0.874;2022-07-06T03:45:19;101607.53;;;19.81;
46015;BME280;36844;51.898;-0.874;2022-07-06T03:47:44;101613.69;;;19.85;
46015;BME280;36844;51.898;-0.874;2022-07-06T03:50:09;101607.16;;;19.86;
46015;BME280;36844;51.898;-0.874;2022-07-06T03:52:35;101616.78;;;19.87;
46015;BME280;36844;51.898;-0.874;2022-07-06T03:55:08;101605.56;;;19.81;
46015;BME280;36844;51.898;-0.874;2022-07-06T03:57:34;101609.78;;;19.78;
46015;BME280;36844;51.898;-0.874;2022-07-06T03:59:59;101612.50;;;19.78;
46015;BME280;36844;51.898;-0.874;2022-07-06T04:02:25;101623.75;;;19.84;
46015;BME280;36844;51.898;-0.874;2022-07-06T04:04:50;101626.06;;;19.86;
46015;BME280;36844;51.898;-0.874;2022-07-06T04:07:15;101610.56;;;19.79;
46015;BME280;36844;51.898;-0.874;2022-07-06T04:09:41;101624.91;;;19.87;
46015;BME280;36844;51.898;-0.874;2022-07-06T04:12:06;101631.09;;;19.87;
46015;BME280;36844;51.898;-0.874;2022-07-06T04:14:32;101607.50;;;19.77;
46015;BME280;36844;51.898;-0.874;2022-07-06T04:16:57;101599.75;;;19.75;
46015;BME280;36844;51.898;-0.874;2022-07-06T04:19:22;101610.22;;;19.77;
46015;BME280;36844;51.898;-0.874;2022-07-06T04:21:48;101609.44;;;19.76;
46015;BME280;36844;51.898;-0.874;2022-07-06T04:24:13;101629.53;;;19.86;
46015;BME280;36844;51.898;-0.874;2022-07-06T04:26:39;101617.91;;;19.78;
46015;BME280;36844;51.898;-0.874;2022-07-06T04:29:04;101601.66;;;19.75;
46015;BME280;36844;51.898;-0.874;2022-07-06T04:31:29;101604.81;;;19.77;
46015;BME280;36844;51.898;-0.874;2022-07-06T04:33:55;101605.13;;;19.72;
46015;BME280;36844;51.898;-0.874;2022-07-06T04:36:20;101616.75;;;19.76;
46015;BME280;36844;51.898;-0.874;2022-07-06T04:38:45;101631.44;;;19.82;
46015;BME280;36844;51.898;-0.874;2022-07-06T04:41:12;101628.38;;;19.84;
46015;BME280;36844;51.898;-0.874;2022-07-06T04:43:38;101620.25;;;19.76;
46015;BME280;36844;51.898;-0.874;2022-07-06T04:46:03;101624.06;;;19.75;
46015;BME280;36844;51.898;-0.874;2022-07-06T04:48:30;101621.78;;;19.77;
46015;BME280;36844;51.898;-0.874;2022-07-06T04:50:57;101632.22;;;19.83;
46015;BME280;36844;51.898;-0.874;2022-07-06T04:53:23;101621.78;;;19.77;
46015;BME280;36844;51.898;-0.874;2022-07-06T04:55:48;101618.66;;;19.75;
46015;BME280;36844;51.898;-0.874;2022-07-06T04:58:14;101626.00;;;19.78;
46015;BME280;36844;51.898;-0.874;2022-07-06T05:00:39;101619.81;;;19.74;
46015;BME280;36844;51.898;-0.874;2022-07-06T05:03:05;101631.41;;;19.78;
46015;BME280;36844;51.898;-0.874;2022-07-06T05:05:30;101631.41;;;19.78;
46015;BME280;36844;51.898;-0.874;2022-07-06T05:07:55;101626.78;;;19.75;
46015;BME280;36844;51.898;-0.874;2022-07-06T05:10:21;101633.38;;;19.82;
46015;BME280;36844;51.898;-0.874;2022-07-06T05:12:46;101638.81;;;19.82;
46015;BME280;36844;51.898;-0.874;2022-07-06T05:15:11;101623.72;;;19.77;
46015;BME280;36844;51.898;-0.874;2022-07-06T05:17:37;101622.16;;;19.72;
46015;BME280;36844;51.898;-0.874;2022-07-06T05:20:03;101625.97;;;19.71;
46015;BME280;36844;51.898;-0.874;2022-07-06T05:22:29;101631.06;;;19.80;
46015;BME280;36844;51.898;-0.874;2022-07-06T05:24:54;101601.63;;;19.64;
46015;BME280;36844;51.898;-0.874;2022-07-06T05:27:20;101634.56;;;19.81;
46015;BME280;36844;51.898;-0.874;2022-07-06T05:29:45;101634.53;;;19.73;
46015;BME280;36844;51.898;-0.874;2022-07-06T05:32:10;101640.69;;;19.74;
46015;BME280;36844;51.898;-0.874;2022-07-06T05:34:36;101650.00;;;19.80;
46015;BME280;36844;51.898;-0.874;2022-07-06T05:37:03;101655.41;;;19.80;
46015;BME280;36844;51.898;-0.874;2022-07-06T05:39:28;101654.59;;;19.76;
46015;BME280;36844;51.898;-0.874;2022-07-06T05:41:53;101656.16;;;19.77;
46015;BME280;36844;51.898;-0.874;2022-07-06T05:44:19;101641.84;;;19.69;
46015;BME280;36844;51.898;-0.874;2022-07-06T05:46:44;101656.16;;;19.73;
46015;BME280;36844;51.898;-0.874;2022-07-06T05:49:10;101640.66;;;19.70;
46015;BME280;36844;51.898;-0.874;2022-07-06T05:51:53;101659.63;;;19.77;
46015;BME280;36844;51.898;-0.874;2022-07-06T05:54:19;101631.75;;;19.66;
46015;BME280;36844;51.898;-0.874;2022-07-06T05:56:44;101649.97;;;19.73;
46015;BME280;36844;51.898;-0.874;2022-07-06T05:59:10;101643.78;;;19.72;
46015;BME280;36844;51.898;-0.874;2022-07-06T06:01:35;101637.16;;;19.66;
46015;BME280;36844;51.898;-0.874;2022-07-06T06:04:00;101640.28;;;19.68;
46015;BME280;36844;51.898;-0.874;2022-07-06T06:06:26;101651.13;;;19.75;
46015;BME280;36844;51.898;-0.874;2022-07-06T06:08:52;101632.16;;;19.68;
46015;BME280;36844;51.898;-0.874;2022-07-06T06:11:17;101628.31;;;19.69;
46015;BME280;36844;51.898;-0.874;2022-07-06T06:13:43;101616.28;;;19.60;
46015;BME280;36844;51.898;-0.874;2022-07-06T06:16:08;101627.53;;;19.69;
46015;BME280;36844;51.898;-0.874;2022-07-06T06:18:34;101632.59;;;19.77;
46015;BME280;36844;51.898;-0.874;2022-07-06T06:20:59;101641.44;;;19.74;
46015;BME280;36844;51.898;-0.874;2022-07-06T06:23:25;101623.25;;;19.64;
46015;BME280;36844;51.898;-0.874;2022-07-06T06:25:50;101623.66;;;19.66;
46015;BME280;36844;51.898;-0.874;2022-07-06T06:28:16;101628.31;;;19.69;
46015;BME280;36844;51.898;-0.874;2022-07-06T06:30:41;101628.66;;;19.64;
46015;BME280;36844;51.898;-0.874;2022-07-06T06:33:10;101648.81;;;19.77;
46015;BME280;36844;51.898;-0.874;2022-07-06T06:35:37;101646.47;;;19.69;
46015;BME280;36844;51.898;-0.874;2022-07-06T06:38:02;101644.13;;;19.71;
46015;BME280;36844;51.898;-0.874;2022-07-06T06:40:28;101635.59;;;19.62;
46015;BME280;36844;51.898;-0.874;2022-07-06T06:42:53;101659.22;;;19.75;
46015;BME280;36844;51.898;-0.874;2022-07-06T06:45:19;101651.88;;;19.69;
46015;BME280;36844;51.898;-0.874;2022-07-06T06:47:44;101661.13;;;19.71;
46015;BME280;36844;51.898;-0.874;2022-07-06T06:50:10;101671.19;;;19.74;
46015;BME280;36844;51.898;-0.874;2022-07-06T06:52:35;101655.34;;;19.69;
46015;BME280;36844;51.898;-0.874;2022-07-06T06:55:00;101646.03;;;19.63;
46015;BME280;36844;51.898;-0.874;2022-07-06T06:57:26;101655.72;;;19.71;
46015;BME280;36844;51.898;-0.874;2022-07-06T06:59:51;101662.66;;;19.65;
46015;BME280;36844;51.898;-0.874;2022-07-06T07:02:16;101658.84;;;19.70;
46015;BME280;36844;51.898;-0.874;2022-07-06T07:04:42;101661.16;;;19.78;
46015;BME280;36844;51.898;-0.874;2022-07-06T07:07:08;101638.69;;;19.67;
46015;BME280;36844;51.898;-0.874;2022-07-06T07:09:33;101646.09;;;19.74;
46015;BME280;36844;51.898;-0.874;2022-07-06T07:11:58;101646.06;;;19.70;
46015;BME280;36844;51.898;-0.874;2022-07-06T07:14:24;101654.19;;;19.74;
46015;BME280;36844;51.898;-0.874;2022-07-06T07:16:49;101654.97;;;19.74;
46015;BME280;36844;51.898;-0.874;2022-07-06T07:19:15;101641.06;;;19.72;
46015;BME280;36844;51.898;-0.874;2022-07-06T07:21:40;101641.41;;;19.71;
46015;BME280;36844;51.898;-0.874;2022-07-06T07:24:06;101636.44;;;19.69;
46015;BME280;36844;51.898;-0.874;2022-07-06T07:26:32;101636.78;;;19.71;
46015;BME280;36844;51.898;-0.874;2022-07-06T07:28:58;101646.09;;;19.77;
46015;BME280;36844;51.898;-0.874;2022-07-06T07:31:23;101638.38;;;19.72;
46015;BME280;36844;51.898;-0.874;2022-07-06T07:33:48;101645.34;;;19.73;
46015;BME280;36844;51.898;-0.874;2022-07-06T07:36:14;101658.91;;;19.81;
46015;BME280;36844;51.898;-0.874;2022-07-06T07:38:39;101644.59;;;19.80;
46015;BME280;36844;51.898;-0.874;2022-07-06T07:41:04;101629.47;;;19.72;
46015;BME280;36844;51.898;-0.874;2022-07-06T07:43:31;101647.28;;;19.80;
46015;BME280;36844;51.898;-0.874;2022-07-06T07:45:56;101637.63;;;19.83;
46015;BME280;36844;51.898;-0.874;2022-07-06T07:48:22;101644.22;;;19.82;
46015;BME280;36844;51.898;-0.874;2022-07-06T07:50:47;101631.41;;;19.75;
46015;BME280;36844;51.898;-0.874;2022-07-06T07:53:12;101633.00;;;19.79;
46015;BME280;36844;51.898;-0.874;2022-07-06T07:55:38;101646.94;;;19.89;
46015;BME280;36844;51.898;-0.874;2022-07-06T07:58:03;101628.72;;;19.78;
46015;BME280;36844;51.898;-0.874;2022-07-06T08:00:29;101643.44;;;19.85;
46015;BME280;36844;51.898;-0.874;2022-07-06T08:02:55;101632.63;;;19.88;
46015;BME280;36844;51.898;-0.874;2022-07-06T08:05:21;101630.69;;;19.85;
46015;BME280;36844;51.898;-0.874;2022-07-06T08:07:46;101619.09;;;19.81;
46015;BME280;36844;51.898;-0.874;2022-07-06T08:10:11;101627.19;;;19.81;
46015;BME280;36844;51.898;-0.874;2022-07-06T08:12:37;101626.06;;;19.86;
46015;BME280;36844;51.898;-0.874;2022-07-06T08:15:03;101629.53;;;19.83;
46015;BME280;36844;51.898;-0.874;2022-07-06T08:17:30;101630.72;;;19.89;
46015;BME280;36844;51.898;-0.874;2022-07-06T08:19:56;101622.59;;;19.85;
46015;BME280;36844;51.898;-0.874;2022-07-06T08:22:21;101618.34;;;19.88;
46015;BME280;36844;51.898;-0.874;2022-07-06T08:24:47;101609.09;;;19.89;
46015;BME280;36844;51.898;-0.874;2022-07-06T08:27:12;101598.63;;;19.84;
46015;BME280;36844;51.898;-0.874;2022-07-06T08:29:38;101612.19;;;19.87;
46015;BME280;36844;51.898;-0.874;2022-07-06T08:32:03;101608.66;;;19.83;
46015;BME280;36844;51.898;-0.874;2022-07-06T08:34:29;101612.59;;;19.93;
46015;BME280;36844;51.898;-0.874;2022-07-06T08:36:54;101602.50;;;19.86;
46015;BME280;36844;51.898;-0.874;2022-07-06T08:39:20;101610.69;;;19.97;
46015;BME280;36844;51.898;-0.874;2022-07-06T08:41:47;101601.38;;;19.98;
46015;BME280;36844;51.898;-0.874;2022-07-06T08:44:14;101603.31;;;19.97;
46015;BME280;36844;51.898;-0.874;2022-07-06T08:46:40;101583.97;;;19.88;
46015;BME280;36844;51.898;-0.874;2022-07-06T08:49:06;101583.19;;;19.95;
46015;BME280;36844;51.898;-0.874;2022-07-06T08:51:35;101583.97;;;19.95;
46015;BME280;36844;51.898;-0.874;2022-07-06T08:54:02;101602.16;;;20.02;
46015;BME280;36844;51.898;-0.874;2022-07-06T08:56:28;101604.50;;;20.03;
46015;BME280;36844;51.898;-0.874;2022-07-06T08:58:54;101595.94;;;19.98;
46015;BME280;36844;51.898;-0.874;2022-07-06T09:01:19;101581.69;;;19.97;
46015;BME280;36844;51.898;-0.874;2022-07-06T09:03:45;101584.00;;;19.99;
46015;BME280;36844;51.898;-0.874;2022-07-06T09:06:16;101575.50;;;19.93;
46015;BME280;36844;51.898;-0.874;2022-07-06T09:08:42;101596.75;;;20.09;
46015;BME280;36844;51.898;-0.874;2022-07-06T09:11:08;101596.81;;;20.12;
46015;BME280;36844;51.898;-0.874;2022-07-06T09:13:34;101583.66;;;20.04;
46015;BME280;36844;51.898;-0.874;2022-07-06T09:16:13;101595.63;;;20.06;
46015;BME280;36844;51.898;-0.874;2022-07-06T09:18:39;101606.06;;;20.15;
46015;BME280;36844;51.898;-0.874;2022-07-06T09:21:08;101600.63;;;20.08;
46015;BME280;36844;51.898;-0.874;2022-07-06T09:23:33;101591.00;;;20.07;
46015;BME280;36844;51.898;-0.874;2022-07-06T09:26:02;101599.13;;;20.14;
46015;BME280;36844;51.898;-0.874;2022-07-06T09:28:44;101609.97;;;20.17;
46015;BME280;36844;51.898;-0.874;2022-07-06T09:31:10;101602.22;;;20.16;
46015;BME280;36844;51.898;-0.874;2022-07-06T09:33:35;101597.56;;;20.13;
46015;BME280;36844;51.898;-0.874;2022-07-06T09:36:01;101600.31;;;20.20;
46015;BME280;36844;51.898;-0.874;2022-07-06T09:38:27;101591.41;;;20.23;
46015;BME280;36844;51.898;-0.874;2022-07-06T09:40:53;101579.41;;;20.10;
46015;BME280;36844;51.898;-0.874;2022-07-06T09:45:55;101591.44;;;20.26;
46015;BME280;36844;51.898;-0.874;2022-07-06T09:48:21;101591.44;;;20.26;
46015;BME280;36844;51.898;-0.874;2022-07-06T09:50:57;101577.09;;;20.19;
46015;BME280;36844;51.898;-0.874;2022-07-06T09:53:25;101571.28;;;20.17;
46015;BME280;36844;51.898;-0.874;2022-07-06T09:55:53;101597.97;;;20.25;
46015;BME280;36844;51.898;-0.874;2022-07-06T09:58:20;101596.06;;;20.29;
46015;BME280;36844;51.898;-0.874;2022-07-06T10:00:47;101580.97;;;20.21;
46015;BME280;36844;51.898;-0.874;2022-07-06T10:03:13;101591.44;;;20.30;
46015;BME280;36844;51.898;-0.874;2022-07-06T10:05:41;101566.28;;;20.22;
46015;BME280;36844;51.898;-0.874;2022-07-06T10:08:08;101573.28;;;20.27;
46015;BME280;36844;51.898;-0.874;2022-07-06T10:10:39;101566.28;;;20.22;
46015;BME280;36844;51.898;-0.874;2022-07-06T10:13:05;101564.72;;;20.21;
46015;BME280;36844;51.898;-0.874;2022-07-06T10:15:35;101575.56;;;20.32;
46015;BME280;36844;51.898;-0.874;2022-07-06T10:18:04;101570.16;;;20.28;
46015;BME280;36844;51.898;-0.874;2022-07-06T10:20:34;101582.16;;;20.38;
46015;BME280;36844;51.898;-0.874;2022-07-06T10:23:03;101577.13;;;20.40;
46015;BME280;36844;51.898;-0.874;2022-07-06T10:25:29;101561.66;;;20.30;
46015;BME280;36844;51.898;-0.874;2022-07-06T10:27:55;101572.09;;;20.35;
46015;BME280;36844;51.898;-0.874;2022-07-06T10:30:22;101572.09;;;20.35;
46015;BME280;36844;51.898;-0.874;2022-07-06T10:32:49;101570.56;;;20.34;
46015;BME280;36844;51.898;-0.874;2022-07-06T10:35:19;101560.09;;;20.25;
46015;BME280;36844;51.898;-0.874;2022-07-06T10:37:45;101584.09;;;20.37;
46015;BME280;36844;51.898;-0.874;2022-07-06T10:40:13;101579.84;;;20.33;
46015;BME280;36844;51.898;-0.874;2022-07-06T10:43:09;101569.41;;;20.31;
46015;BME280;36844;51.898;-0.874;2022-07-06T10:50:55;101589.91;;;20.43;
46015;BME280;36844;51.898;-0.874;2022-07-06T10:53:22;101594.16;;;20.44;
46015;BME280;36844;51.898;-0.874;2022-07-06T10:55:51;101584.09;;;20.34;
46015;BME280;36844;51.898;-0.874;2022-07-06T10:58:36;101600.75;;;20.43;
46015;BME280;36844;51.898;-0.874;2022-07-06T11:01:01;101593.38;;;20.36;
46015;BME280;36844;51.898;-0.874;2022-07-06T11:06:06;101572.84;;;20.28;
46015;BME280;36844;51.898;-0.874;2022-07-06T11:08:46;101597.25;;;20.42;
46015;BME280;36844;51.898;-0.874;2022-07-06T11:11:17;101592.59;;;20.32;
46015;BME280;36844;51.898;-0.874;2022-07-06T11:16:13;101595.34;;;20.43;
46015;BME280;36844;51.898;-0.874;2022-07-06T11:18:40;101593.75;;;20.38;
46015;BME280;36844;51.898;-0.874;2022-07-06T11:21:16;101595.69;;;20.34;
46015;BME280;36844;51.898;-0.874;2022-07-06T11:23:43;101595.69;;;20.34;
46015;BME280;36844;51.898;-0.874;2022-07-06T11:26:10;101607.69;;;20.40;
46015;BME280;36844;51.898;-0.874;2022-07-06T11:28:37;101594.94;;;20.34;
46015;BME280;36844;51.898;-0.874;2022-07-06T11:31:02;101594.53;;;20.35;
46015;BME280;36844;51.898;-0.874;2022-07-06T11:33:32;101602.66;;;20.39;
46015;BME280;36844;51.898;-0.874;2022-07-06T11:38:42;101618.13;;;20.45;
46015;BME280;36844;51.898;-0.874;2022-07-06T11:41:08;101601.50;;;20.40;
46015;BME280;36844;51.898;-0.874;2022-07-06T11:43:34;101600.31;;;20.37;
46015;BME280;36844;51.898;-0.874;2022-07-06T11:45:59;101601.13;;;20.45;
46015;BME280;36844;51.898;-0.874;2022-07-06T11:48:25;101579.84;;;20.33;
46015;BME280;36844;51.898;-0.874;2022-07-06T11:51:03;101587.56;;;20.38;
46015;BME280;36844;51.898;-0.874;2022-07-06T11:53:29;101603.47;;;20.46;
46015;BME280;36844;51.898;-0.874;2022-07-06T11:55:54;101591.84;;;20.46;
46015;BME280;36844;51.898;-0.874;2022-07-06T11:58:23;101558.53;;;20.24;
46015;BME280;36844;51.898;-0.874;2022-07-06T12:01:09;101580.22;;;20.42;
46015;BME280;36844;51.898;-0.874;2022-07-06T12:03:34;101583.34;;;20.44;
46015;BME280;36844;51.898;-0.874;2022-07-06T12:06:04;101570.94;;;20.36;
46015;BME280;36844;51.898;-0.874;2022-07-06T12:08:30;101562.06;;;20.35;
46015;BME280;36844;51.898;-0.874;2022-07-06T12:10:56;101569.41;;;20.42;
46015;BME280;36844;51.898;-0.874;2022-07-06T12:13:22;101579.09;;;20.46;
46015;BME280;36844;51.898;-0.874;2022-07-06T12:15:48;101549.66;;;20.31;
46015;BME280;36844;51.898;-0.874;2022-07-06T12:18:13;101557.03;;;20.41;
46015;BME280;36844;51.898;-0.874;2022-07-06T12:20:39;101569.06;;;20.47;
46015;BME280;36844;51.898;-0.874;2022-07-06T12:23:05;101558.59;;;20.42;
46015;BME280;36844;51.898;-0.874;2022-07-06T12:25:37;101546.56;;;20.36;
46015;BME280;36844;51.898;-0.874;2022-07-06T12:28:03;101561.66;;;20.47;
46015;BME280;36844;51.898;-0.874;2022-07-06T12:30:29;101550.47;;;20.42;
46015;BME280;36844;51.898;-0.874;2022-07-06T12:33:12;101539.63;;;20.38;
46015;BME280;36844;51.898;-0.874;2022-07-06T12:35:38;101543.13;;;20.42;
46015;BME280;36844;51.898;-0.874;2022-07-06T12:38:03;101515.28;;;20.28;
46015;BME280;36844;51.898;-0.874;2022-07-06T12:40:29;101551.59;;;20.48;
46015;BME280;36844;51.898;-0.874;2022-07-06T12:42:54;101546.19;;;20.48;
46015;BME280;36844;51.898;-0.874;2022-07-06T12:45:29;101537.72;;;20.42;
46015;BME280;36844;51.898;-0.874;2022-07-06T12:47:58;101550.81;;;20.47;
46015;BME280;36844;51.898;-0.874;2022-07-06T12:50:39;101536.94;;;20.42;
46015;BME280;36844;51.898;-0.874;2022-07-06T12:53:06;101543.13;;;20.46;
46015;BME280;36844;51.898;-0.874;2022-07-06T12:55:48;101547.38;;;20.40;
46015;BME280;36844;51.898;-0.874;2022-07-06T12:58:18;101534.63;;;20.40;
46015;BME280;36844;51.898;-0.874;2022-07-06T13:00:45;101557.03;;;20.48;
46015;BME280;36844;51.898;-0.874;2022-07-06T13:03:11;101537.72;;;20.35;
46015;BME280;36844;51.898;-0.874;2022-07-06T13:05:37;101534.63;;;20.40;
46015;BME280;36844;51.898;-0.874;2022-07-06T13:08:03;101551.59;;;20.44;
46015;BME280;36844;51.898;-0.874;2022-07-06T13:10:29;101521.06;;;20.30;
46015;BME280;36844;51.898;-0.874;2022-07-06T13:12:55;101533.84;;;20.43;
46015;BME280;36844;51.898;-0.874;2022-07-06T13:15:21;101529.94;;;20.44;
46015;BME280;36844;51.898;-0.874;2022-07-06T13:17:46;101522.25;;;20.43;
46015;BME280;36844;51.898;-0.874;2022-07-06T13:20:12;101522.25;;;20.46;
46015;BME280;36844;51.898;-0.874;2022-07-06T13:22:39;101526.88;;;20.46;
46015;BME280;36844;51.898;-0.874;2022-07-06T13:25:05;101516.84;;;20.43;
46015;BME280;36844;51.898;-0.874;2022-07-06T13:27:31;101514.13;;;20.43;
46015;BME280;36844;51.898;-0.874;2022-07-06T13:29:56;101519.91;;;20.45;
46015;BME280;36844;51.898;-0.874;2022-07-06T13:32:22;101526.88;;;20.53;
46015;BME280;36844;51.898;-0.874;2022-07-06T13:34:48;101503.66;;;20.45;
46015;BME280;36844;51.898;-0.874;2022-07-06T13:37:13;101502.09;;;20.47;
46015;BME280;36844;51.898;-0.874;2022-07-06T13:39:38;101500.97;;;20.52;
46015;BME280;36844;51.898;-0.874;2022-07-06T13:42:04;101495.53;;;20.48;
46015;BME280;36844;51.898;-0.874;2022-07-06T13:44:30;101492.84;;;20.48;